Time;durP1;ratioP1;P1;durP2;ratioP2;P2;SDS_P1;SDS_P2;PMS_P1;PMS_P2;Temp;Humidity;BMP_temperature;BMP_pressure;BME280_temperature;BME280_humidity;BME280_pressure;Samples;Min_cycle;Max_cycle;Signal;HPM_P1;HPM_P2
2022/01/26 00:07:43;;;;;;;24.85;14.55;;;15.40;45.50;14.40;102854.00;;;;5000786;28;20132;-71
2022/01/26 00:10:30;;;;;;;26.08;14.18;;;15.40;45.50;14.40;102848.00;;;;5005865;28;20419;-71
2022/01/26 00:13:16;;;;;;;31.43;18.00;;;15.40;45.50;14.40;102843.00;;;;5054940;28;20470;-71
2022/01/26 00:16:06;;;;;;;27.30;15.88;;;15.30;45.40;14.40;102828.00;;;;5061527;28;20033;-71
2022/01/26 00:18:59;;;;;;;28.02;15.68;;;15.40;45.40;14.40;102824.00;;;;5062999;28;20048;-71
2022/01/26 00:21:52;;;;;;;32.17;17.75;;;15.40;45.40;14.40;102833.00;;;;5051406;28;20060;-71
2022/01/26 00:25:06;;;;;;;30.85;15.73;;;15.40;45.40;14.40;102827.00;;;;5050734;28;20185;-71
2022/01/26 00:27:57;;;;;;;30.42;16.95;;;15.30;45.30;14.40;102824.00;;;;5065295;28;20059;-71
2022/01/26 00:39:49;;;;;;;27.17;15.18;;;15.30;45.20;14.30;102816.00;;;;5061362;28;20101;-71
2022/01/26 00:42:39;;;;;;;27.00;15.70;;;15.30;45.20;14.30;102825.00;;;;5064755;28;20036;-72
2022/01/26 00:45:32;;;;;;;30.35;16.45;;;15.30;45.20;14.30;102820.00;;;;5064820;28;20040;-71
2022/01/26 00:48:19;;;;;;;32.60;17.80;;;15.30;45.20;14.30;102819.00;;;;5045936;28;20402;-71
2022/01/26 00:51:06;;;;;;;32.50;16.65;;;15.30;44.90;14.30;102821.00;;;;5062241;28;20127;-71
2022/01/26 00:54:00;;;;;;;32.38;17.13;;;15.20;44.90;14.30;102823.00;;;;5064006;28;20048;-71
2022/01/26 00:56:46;;;;;;;32.30;17.50;;;15.20;45.00;14.30;102813.00;;;;5064940;28;20028;-72
2022/01/26 00:59:32;;;;;;;31.55;16.98;;;15.20;45.00;14.30;102820.00;;;;5055564;28;20029;-71
2022/01/26 01:02:18;;;;;;;33.70;17.75;;;15.20;45.00;14.30;102832.00;;;;5066162;28;20389;-71
2022/01/26 01:05:13;;;;;;;30.83;17.33;;;15.20;45.10;14.30;102822.00;;;;5063295;28;20267;-71
2022/01/26 01:08:08;;;;;;;33.08;18.05;;;15.20;45.10;14.30;102813.00;;;;5059948;28;20119;-71
2022/01/26 01:10:55;;;;;;;32.05;18.48;;;15.20;45.10;14.30;102825.00;;;;5063408;28;20552;-71
2022/01/26 01:13:42;;;;;;;32.60;18.23;;;15.20;45.10;14.20;102819.00;;;;5046067;28;20032;-71
2022/01/26 01:16:29;;;;;;;32.33;16.90;;;15.20;45.20;14.30;102816.00;;;;5061763;28;20040;-71
2022/01/26 01:19:42;;;;;;;34.78;18.30;;;15.20;45.10;14.20;102820.00;;;;5063416;28;20068;-71
2022/01/26 01:22:50;;;;;;;33.40;18.50;;;15.20;45.10;14.20;102808.00;;;;5059383;28;20044;-71
2022/01/26 01:34:37;;;;;;;;;;;15.20;45.20;14.20;102792.00;;;;5069491;28;20036;-71
2022/01/26 01:37:23;;;;;;;30.20;16.77;;;15.20;45.50;14.20;102797.00;;;;5047451;28;19948;-71
2022/01/26 01:40:10;;;;;;;34.13;18.83;;;15.20;45.10;14.20;102803.00;;;;5064819;28;20044;-71
2022/01/26 01:42:56;;;;;;;31.90;18.08;;;15.20;45.00;14.20;102801.00;;;;5054391;28;20037;-71
2022/01/26 01:45:47;;;;;;;36.10;18.75;;;15.20;45.10;14.20;102802.00;;;;5051777;28;20486;-71
2022/01/26 01:48:34;;;;;;;34.17;18.42;;;15.10;45.10;14.20;102785.00;;;;5060588;28;20040;-71
2022/01/26 01:51:27;;;;;;;34.42;18.73;;;15.10;45.20;14.20;102797.00;;;;5062325;28;20530;-71
2022/01/26 01:54:16;;;;;;;35.67;18.83;;;15.10;45.00;14.20;102803.00;;;;5064691;28;20032;-71
2022/01/26 01:57:02;;;;;;;36.33;19.50;;;15.10;44.90;14.20;102815.00;;;;5060958;28;20045;-71
2022/01/26 01:59:48;;;;;;;32.42;19.25;;;15.10;45.00;14.20;102819.00;;;;5067553;28;20519;-71
2022/01/26 02:02:34;;;;;;;33.05;18.60;;;15.10;45.10;14.20;102809.00;;;;5054230;28;20036;-71
2022/01/26 02:05:20;;;;;;;35.72;19.58;;;15.10;45.10;14.20;102800.00;;;;5034578;28;20032;-71
2022/01/26 02:08:06;;;;;;;36.08;19.08;;;15.10;45.10;14.20;102799.00;;;;5055640;28;20044;-71
2022/01/26 02:10:52;;;;;;;33.50;17.65;;;15.10;45.20;14.20;102813.00;;;;5041564;28;20451;-71
2022/01/26 02:13:49;;;;;;;32.35;18.10;;;15.10;45.30;14.20;102820.00;;;;5052817;28;20090;-71
2022/01/26 03:00:28;;;;;;;37.63;20.02;;;15.20;45.40;14.20;102716.00;;;;5065614;28;20387;-72
2022/01/26 03:03:24;;;;;;;36.65;20.50;;;15.20;45.40;14.20;102717.00;;;;5050380;28;20091;-71
2022/01/26 03:06:16;;;;;;;34.83;19.88;;;15.20;45.30;14.20;102738.00;;;;5066805;28;20045;-71
2022/01/26 03:09:09;;;;;;;33.88;18.80;;;15.20;45.40;14.20;102735.00;;;;5048949;28;20047;-71
2022/01/26 03:11:56;;;;;;;35.65;19.58;;;15.20;45.40;14.20;102741.00;;;;5067003;28;20037;-71
2022/01/26 03:14:50;;;;;;;36.55;20.60;;;15.20;45.50;14.20;102735.00;;;;5063097;28;20094;-71
2022/01/26 03:20:22;;;;;;;35.88;19.27;;;15.20;45.50;14.20;102724.00;;;;5054364;28;20042;-71
2022/01/26 03:35:39;;;;;;;37.03;20.30;;;15.20;45.50;14.20;102743.00;;;;5049214;28;20032;-71
2022/01/26 03:38:38;;;;;;;36.03;20.00;;;15.10;45.50;14.20;102747.00;;;;5048011;28;20071;-71
2022/01/26 03:41:40;;;;;;;33.10;19.23;;;15.20;45.50;14.20;102747.00;;;;5055451;28;20063;-71
2022/01/26 03:44:26;;;;;;;34.50;20.15;;;15.20;45.50;14.20;102739.00;;;;5065175;28;20044;-71
2022/01/26 03:47:12;;;;;;;35.83;19.27;;;15.20;45.50;14.20;102724.00;;;;5063183;28;20485;-71
2022/01/26 03:49:58;;;;;;;34.70;19.55;;;15.20;45.50;14.20;102718.00;;;;5066281;28;20047;-71
2022/01/26 03:52:44;;;;;;;37.55;21.05;;;15.20;45.30;14.20;102704.00;;;;5048977;28;20029;-71
2022/01/26 03:55:30;;;;;;;35.83;19.75;;;15.10;45.10;14.20;102703.00;;;;5062597;28;20037;-71
2022/01/26 03:58:16;;;;;;;35.00;19.77;;;15.10;45.00;14.20;102685.00;;;;5059515;28;20470;-71
2022/01/26 04:01:02;;;;;;;35.42;19.35;;;15.10;45.20;14.20;102680.00;;;;5062202;28;20063;-71
2022/01/26 04:03:49;;;;;;;34.50;18.77;;;15.10;45.30;14.20;102685.00;;;;5052236;28;20056;-71
2022/01/26 04:06:35;;;;;;;35.80;20.30;;;15.10;45.40;14.20;102710.00;;;;5064422;28;20503;-71
2022/01/26 04:09:21;;;;;;;34.67;20.35;;;15.10;45.40;14.20;102710.00;;;;5063725;28;20089;-71
2022/01/26 04:12:08;;;;;;;37.33;20.30;;;15.10;45.40;14.20;102723.00;;;;5063388;28;20032;-71
2022/01/26 04:15:00;;;;;;;33.47;20.15;;;15.10;45.40;14.20;102730.00;;;;5049477;28;20450;-71
2022/01/26 04:17:46;;;;;;;35.58;19.33;;;15.10;45.40;14.20;102733.00;;;;5057937;28;20037;-71
2022/01/26 04:20:38;;;;;;;37.70;20.90;;;15.10;45.40;14.20;102731.00;;;;5061880;28;20044;-71
2022/01/26 04:26:37;;;;;;;34.72;18.65;;;15.10;45.10;14.20;102744.00;;;;5040940;28;20071;-71
2022/01/26 04:29:27;;;;;;;37.90;20.15;;;15.10;45.10;14.20;102755.00;;;;5048114;28;20406;-71
2022/01/26 04:32:15;;;;;;;40.80;21.70;;;15.10;45.00;14.20;102737.00;;;;5061873;28;20044;-71
2022/01/26 04:35:01;;;;;;;36.78;20.83;;;15.20;44.90;14.20;102733.00;;;;5049804;28;20090;-72
2022/01/26 04:41:03;;;;;;;34.83;19.63;;;15.20;44.90;14.20;102742.00;;;;5064950;28;20048;-71
2022/01/26 04:43:52;;;;;;;38.40;20.20;;;15.20;45.00;14.30;102749.00;;;;5062874;28;20059;-71
2022/01/26 04:46:38;;;;;;;39.90;20.70;;;15.20;45.00;14.30;102761.00;;;;5050364;28;20047;-71
2022/01/26 04:49:25;;;;;;;36.50;20.75;;;15.20;44.90;14.30;102765.00;;;;5051632;28;20036;-71
2022/01/26 04:52:13;;;;;;;34.20;20.33;;;15.20;44.90;14.30;102756.00;;;;5062053;28;20036;-71
2022/01/26 04:54:59;;;;;;;36.42;20.25;;;15.20;45.00;14.30;102747.00;;;;5059409;28;20119;-72
2022/01/26 04:57:45;;;;;;;35.40;20.25;;;15.20;45.00;14.30;102760.00;;;;5062253;28;20032;-71
2022/01/26 05:00:31;;;;;;;35.30;20.23;;;15.20;45.00;14.30;102754.00;;;;5065006;28;20143;-71
2022/01/26 05:03:17;;;;;;;35.45;20.00;;;15.30;44.80;14.30;102749.00;;;;5055945;28;20102;-71
2022/01/26 05:06:03;;;;;;;34.25;19.50;;;15.30;44.90;14.30;102742.00;;;;5060687;28;20142;-71
2022/01/26 05:08:49;;;;;;;35.83;19.70;;;15.20;44.90;14.30;102730.00;;;;5056615;28;20177;-71
2022/01/26 05:11:39;;;;;;;39.83;20.92;;;15.30;44.90;14.30;102722.00;;;;5067517;28;20032;-71
2022/01/26 05:14:25;;;;;;;38.40;21.17;;;15.30;44.60;14.30;102732.00;;;;5068656;28;20107;-71
2022/01/26 05:17:13;;;;;;;36.45;19.92;;;15.30;44.50;14.30;102734.00;;;;5064747;28;20036;-71
2022/01/26 05:20:00;;;;;;;37.25;20.80;;;15.30;44.50;14.30;102727.00;;;;5063925;28;20378;-71
2022/01/26 05:22:50;;;;;;;37.70;21.65;;;15.30;44.60;14.30;102725.00;;;;5063797;28;20441;-71
2022/01/26 05:25:36;;;;;;;35.65;20.70;;;15.20;44.60;14.30;102708.00;;;;5064501;28;20501;-71
2022/01/26 05:28:22;;;;;;;38.00;21.17;;;15.30;45.50;14.30;102699.00;;;;5053331;28;20383;-71
2022/01/26 05:31:08;;;;;;;39.42;21.60;;;15.20;44.60;14.30;102684.00;;;;5060528;28;20048;-71
2022/01/26 05:33:54;;;;;;;34.38;20.90;;;15.20;44.70;14.30;102676.00;;;;5066501;28;20425;-71
2022/01/26 05:36:40;;;;;;;36.20;20.85;;;15.20;44.70;14.30;102670.00;;;;5061570;28;20401;-71
2022/01/26 05:39:26;;;;;;;35.63;20.80;;;15.20;44.50;14.30;102663.00;;;;5048509;28;20087;-71
2022/01/26 05:42:13;;;;;;;36.22;20.65;;;15.20;44.70;14.30;102667.00;;;;5065053;28;20407;-71
2022/01/26 05:45:03;;;;;;;46.58;24.50;;;15.20;44.50;14.20;102659.00;;;;5069228;28;20055;-71
2022/01/26 05:47:49;;;;;;;45.78;25.83;;;15.20;44.00;14.20;102679.00;;;;5066237;28;20502;-71
2022/01/26 05:50:37;;;;;;;40.22;23.30;;;15.20;43.80;14.20;102678.00;;;;5052047;28;20048;-71
2022/01/26 05:53:23;;;;;;;42.60;23.88;;;15.20;44.20;14.20;102687.00;;;;5052599;28;20035;-71
2022/01/26 05:56:09;;;;;;;43.00;23.65;;;15.10;44.20;14.20;102698.00;;;;5066053;28;20166;-71
2022/01/26 05:58:55;;;;;;;43.97;24.90;;;15.10;44.40;14.20;102684.00;;;;5067619;28;20154;-71
2022/01/26 06:01:41;;;;;;;39.85;23.02;;;15.10;44.20;14.20;102670.00;;;;5060932;28;20032;-71
2022/01/26 06:04:28;;;;;;;46.35;26.58;;;15.10;44.20;14.20;102687.00;;;;5043719;28;20044;-71
2022/01/26 06:07:14;;;;;;;42.60;22.75;;;15.10;44.40;14.20;102683.00;;;;5064427;28;20133;-71
2022/01/26 06:10:00;;;;;;;40.97;23.67;;;15.10;44.50;14.10;102702.00;;;;5061241;28;20068;-71
2022/01/26 06:12:46;;;;;;;45.42;26.10;;;15.10;44.60;14.20;102702.00;;;;5059274;28;20047;-71
2022/01/26 06:15:32;;;;;;;42.00;24.15;;;15.00;44.50;14.20;102706.00;;;;5051453;28;20032;-71
2022/01/26 06:18:18;;;;;;;41.78;23.17;;;15.10;44.60;14.20;102709.00;;;;5066156;28;20047;-71
2022/01/26 06:21:04;;;;;;;44.92;25.75;;;15.10;44.60;14.20;102702.00;;;;5058030;28;20054;-71
2022/01/26 06:23:50;;;;;;;47.65;25.48;;;15.10;44.50;14.20;102703.00;;;;5060335;28;20052;-71
2022/01/26 06:26:37;;;;;;;47.70;25.10;;;15.10;44.60;14.20;102696.00;;;;5046539;28;20040;-71
2022/01/26 06:29:23;;;;;;;42.63;24.23;;;15.10;44.70;14.10;102690.00;;;;5065031;28;20177;-71
2022/01/26 06:32:10;;;;;;;44.13;23.95;;;15.10;44.70;14.20;102710.00;;;;5058150;28;20107;-71
2022/01/26 06:34:56;;;;;;;41.65;23.95;;;15.10;44.70;14.10;102692.00;;;;5032962;28;20040;-71
2022/01/26 06:37:44;;;;;;;48.58;26.65;;;15.10;44.60;14.20;102694.00;;;;5054429;28;20043;-71
2022/01/26 06:40:30;;;;;;;47.42;25.10;;;15.10;44.20;14.20;102703.00;;;;5048767;28;20047;-71
2022/01/26 06:43:16;;;;;;;49.75;27.58;;;15.10;44.20;14.10;102691.00;;;;5045385;28;20044;-72
2022/01/26 06:46:05;;;;;;;51.88;27.85;;;15.10;43.70;14.10;102680.00;;;;5064916;28;20043;-72
2022/01/26 06:51:43;;;;;;;52.33;28.60;;;15.00;43.40;14.10;102683.00;;;;5059345;28;20055;-65
2022/01/26 06:54:29;;;;;;;53.05;27.42;;;15.10;43.40;14.10;102665.00;;;;5061308;28;20044;-64
2022/01/26 06:57:15;;;;;;;50.28;26.50;;;15.00;43.50;14.10;102651.00;;;;5050344;28;20033;-65
2022/01/26 07:00:02;;;;;;;50.08;26.27;;;15.00;43.90;14.00;102658.00;;;;5020939;28;1036819;-65
2022/01/26 07:02:48;;;;;;;49.83;26.20;;;15.00;44.00;14.00;102647.00;;;;5054166;28;20586;-65
2022/01/26 07:05:34;;;;;;;49.28;26.05;;;15.00;44.10;14.00;102651.00;;;;5048717;28;20033;-65
2022/01/26 07:08:24;;;;;;;48.28;25.98;;;15.00;44.10;14.00;102638.00;;;;5048586;28;20205;-65
2022/01/26 07:11:10;;;;;;;49.90;27.08;;;14.90;44.10;14.10;102656.00;;;;5062746;28;20478;-65
2022/01/26 07:13:58;;;;;;;50.83;25.77;;;14.90;43.90;14.10;102657.00;;;;5062932;28;20093;-65
2022/01/26 07:22:55;;;;;;;51.65;26.73;;;15.00;44.10;14.10;102667.00;;;;5043002;28;20068;-65
2022/01/26 07:25:41;;;;;;;44.53;25.08;;;15.00;44.20;14.10;102674.00;;;;5051657;28;20367;-65
2022/01/26 07:28:29;;;;;;;48.33;27.25;;;15.00;44.10;14.10;102674.00;;;;5061891;28;20041;-65
2022/01/26 07:31:16;;;;;;;;;;;15.00;44.10;14.10;102664.00;;;;5062632;28;20040;-65
2022/01/26 07:34:02;;;;;;;48.00;26.58;;;15.10;44.40;14.10;102661.00;;;;5063128;28;20303;-65
2022/01/26 07:36:51;;;;;;;51.45;26.35;;;15.10;44.20;14.10;102661.00;;;;5051870;28;20405;-65
2022/01/26 07:39:46;;;;;;;50.70;25.70;;;15.10;44.20;14.20;102652.00;;;;5066289;28;20036;-65
2022/01/26 07:42:38;;;;;;;51.38;26.25;;;15.10;44.20;14.10;102657.00;;;;5051874;28;20115;-65
2022/01/26 07:45:24;;;;;;;47.38;26.02;;;15.10;44.10;14.20;102662.00;;;;5067931;28;20041;-65
2022/01/26 07:48:10;;;;;;;46.03;24.75;;;15.10;44.20;14.20;102667.00;;;;5046023;28;20090;-65
2022/01/26 07:50:57;;;;;;;48.13;26.02;;;15.10;44.10;14.20;102683.00;;;;5053296;28;20037;-65
2022/01/26 07:53:44;;;;;;;45.10;25.05;;;15.10;44.20;14.10;102674.00;;;;5064502;28;20047;-65
2022/01/26 07:56:31;;;;;;;45.85;24.52;;;15.10;44.10;14.20;102660.00;;;;5063380;28;20029;-65
2022/01/26 07:59:17;;;;;;;46.25;25.50;;;15.10;44.20;14.10;102665.00;;;;5062863;28;20044;-65
2022/01/26 08:02:03;;;;;;;43.03;23.90;;;15.10;44.10;14.20;102695.00;;;;5059820;28;20040;-65
2022/01/26 08:04:49;;;;;;;46.85;25.73;;;15.10;44.20;14.20;102695.00;;;;5064431;28;20044;-65
2022/01/26 08:07:35;;;;;;;44.10;23.27;;;15.10;44.20;14.20;102707.00;;;;5051314;28;20397;-65
2022/01/26 08:10:21;;;;;;;43.28;23.77;;;15.10;44.10;14.20;102700.00;;;;5064962;28;20033;-65
2022/01/26 08:13:08;;;;;;;42.83;23.88;;;15.10;44.10;14.10;102708.00;;;;5065898;28;20036;-65
2022/01/26 08:15:57;;;;;;;43.47;23.55;;;15.10;44.10;14.10;102719.00;;;;5062671;28;20119;-65
2022/01/26 08:18:43;;;;;;;39.72;23.30;;;15.10;44.10;14.10;102706.00;;;;5061679;28;20592;-65
2022/01/26 08:21:29;;;;;;;41.40;22.08;;;15.10;44.10;14.10;102703.00;;;;5051967;28;20040;-65
2022/01/26 08:24:15;;;;;;;42.63;22.52;;;15.10;44.10;14.10;102697.00;;;;5064525;28;20189;-65
2022/01/26 08:27:08;;;;;;;37.30;20.45;;;15.10;44.10;14.10;102701.00;;;;5064009;28;20037;-65
2022/01/26 08:30:02;;;;;;;36.83;20.27;;;15.10;44.20;14.10;102696.00;;;;5049604;28;20036;-65
2022/01/26 08:32:48;;;;;;;38.92;21.55;;;15.10;44.20;14.10;102707.00;;;;5058316;28;20067;-65
2022/01/26 08:35:35;;;;;;;38.45;21.15;;;15.10;44.20;14.10;102705.00;;;;5065554;28;20024;-65
2022/01/26 08:38:21;;;;;;;40.90;21.02;;;15.10;44.20;14.10;102703.00;;;;5063467;28;20125;-65
2022/01/26 08:41:09;;;;;;;39.72;21.25;;;15.10;44.20;14.10;102705.00;;;;5065049;28;20607;-65
2022/01/26 08:43:56;;;;;;;36.15;20.75;;;15.10;44.20;14.10;102699.00;;;;5066032;28;20044;-65
2022/01/26 08:46:42;;;;;;;35.75;19.58;;;15.10;44.20;14.10;102700.00;;;;5065528;28;20074;-65
2022/01/26 08:49:28;;;;;;;39.03;19.63;;;15.10;44.20;14.10;102697.00;;;;5063602;28;20490;-65
2022/01/26 08:52:14;;;;;;;36.97;19.95;;;15.10;44.20;14.10;102701.00;;;;5058450;28;20063;-65
2022/01/26 08:55:01;;;;;;;43.55;22.17;;;15.10;44.20;14.10;102680.00;;;;5056948;28;20544;-65
2022/01/26 08:57:47;;;;;;;43.70;21.42;;;15.10;44.10;14.10;102684.00;;;;5035056;28;20044;-65
2022/01/26 09:00:35;;;;;;;36.25;19.10;;;15.10;44.20;14.10;102690.00;;;;5058517;28;20041;-65
2022/01/26 09:03:21;;;;;;;36.28;19.27;;;15.10;44.20;14.10;102683.00;;;;5047367;28;20470;-65
2022/01/26 09:06:07;;;;;;;33.70;19.73;;;15.10;44.20;14.10;102674.00;;;;5063718;28;20402;-65
2022/01/26 09:09:01;;;;;;;40.70;22.60;;;15.10;44.10;14.10;102669.00;;;;5048649;28;20045;-65
2022/01/26 09:11:48;;;;;;;39.05;20.65;;;15.10;44.10;14.10;102671.00;;;;5062654;28;20124;-65
2022/01/26 09:14:34;;;;;;;42.58;22.40;;;15.10;44.20;14.10;102672.00;;;;5062909;28;20041;-65
2022/01/26 09:17:20;;;;;;;41.45;22.13;;;15.10;43.90;14.10;102669.00;;;;5062288;28;20406;-65
2022/01/26 09:20:07;;;;;;;43.10;22.38;;;15.10;44.00;14.10;102665.00;;;;5046571;28;20102;-65
2022/01/26 09:22:53;;;;;;;42.05;22.45;;;15.10;44.00;14.10;102660.00;;;;5049813;28;20086;-65
2022/01/26 09:25:39;;;;;;;44.63;23.83;;;15.10;44.00;14.10;102658.00;;;;5064255;28;20036;-65
2022/01/26 09:28:26;;;;;;;45.10;23.63;;;15.10;43.90;14.10;102661.00;;;;5053966;28;20044;-65
2022/01/26 09:31:12;;;;;;;43.22;23.45;;;15.00;44.00;14.10;102670.00;;;;5061866;28;20095;-65
2022/01/26 09:33:58;;;;;;;44.55;22.85;;;15.10;44.10;14.10;102670.00;;;;5063479;28;20044;-65
2022/01/26 09:36:44;;;;;;;43.63;23.05;;;15.00;44.10;14.10;102683.00;;;;5062911;28;20039;-65
2022/01/26 09:39:30;;;;;;;45.83;24.63;;;15.00;44.10;14.10;102685.00;;;;5048895;28;20040;-65
2022/01/26 09:42:17;;;;;;;45.45;24.92;;;15.00;44.00;14.10;102683.00;;;;5059419;28;20382;-64
2022/01/26 09:45:05;;;;;;;48.80;24.48;;;15.00;44.10;14.10;102687.00;;;;5042705;28;20054;-65
2022/01/26 09:47:51;;;;;;;;;;;15.00;44.10;14.00;102689.00;;;;5048342;28;21849;-65
2022/01/26 09:50:37;;;;;;;47.05;26.27;;;15.00;44.20;14.00;102689.00;;;;5062617;28;20277;-65
2022/01/26 09:53:28;;;;;;;46.15;25.70;;;15.00;44.00;14.10;102696.00;;;;5064969;28;20028;-65
2022/01/26 09:56:14;;;;;;;51.55;26.60;;;15.00;44.10;14.00;102698.00;;;;5050529;28;20060;-65
2022/01/26 09:59:00;;;;;;;52.40;27.60;;;15.00;44.10;14.00;102710.00;;;;5062141;28;20044;-65
2022/01/26 10:01:48;;;;;;;54.50;28.77;;;15.00;44.10;14.00;102710.00;;;;5046618;28;20231;-65
2022/01/26 10:04:37;;;;;;;;;;;15.00;44.10;14.00;102712.00;;;;5068704;28;20380;-65
2022/01/26 10:19:19;;;;;;;57.72;31.85;;;14.90;43.80;14.00;102700.00;;;;5053884;28;20738;-65
2022/01/26 10:22:05;;;;;;;57.95;32.10;;;14.90;43.80;14.00;102712.00;;;;5046822;28;20032;-65
2022/01/26 10:25:05;;;;;;;57.53;32.25;;;15.00;44.00;14.00;102734.00;;;;5053237;28;20102;-65
2022/01/26 10:27:51;;;;;;;59.53;31.90;;;14.90;43.70;14.00;102728.00;;;;5063593;28;20036;-65
2022/01/26 10:30:44;;;;;;;66.00;32.88;;;14.90;44.00;14.00;102722.00;;;;5048773;28;20576;-65
2022/01/26 10:33:30;;;;;;;59.78;32.55;;;14.90;44.10;14.00;102713.00;;;;5056228;28;20068;-65
2022/01/26 10:36:16;;;;;;;67.05;36.30;;;14.90;43.90;14.00;102718.00;;;;5046910;28;20094;-65
2022/01/26 10:39:10;;;;;;;63.45;33.95;;;14.90;43.90;14.00;102725.00;;;;5053651;28;20036;-65
2022/01/26 10:42:01;;;;;;;62.15;33.40;;;14.90;44.10;14.00;102721.00;;;;5052003;28;20465;-65
2022/01/26 10:45:11;;;;;;;58.40;32.00;;;14.90;44.10;14.00;102721.00;;;;5053299;28;20532;-64
2022/01/26 10:48:17;;;;;;;64.07;32.78;;;14.90;44.10;14.00;102715.00;;;;5065967;28;20123;-65
2022/01/26 10:54:18;;;;;;;65.93;34.95;;;14.90;44.20;13.90;102690.00;;;;5049160;28;20032;-64
2022/01/26 10:57:06;;;;;;;61.47;33.83;;;14.90;44.30;14.00;102690.00;;;;5065925;28;20036;-65
2022/01/26 10:59:52;;;;;;;63.78;33.72;;;14.90;44.30;14.00;102695.00;;;;5045660;28;20091;-64
2022/01/26 11:02:40;;;;;;;63.35;33.80;;;14.90;44.30;14.00;102702.00;;;;5055337;28;20039;-65
2022/01/26 11:05:26;;;;;;;66.28;36.28;;;14.90;44.30;14.00;102704.00;;;;5051731;28;20401;-64
2022/01/26 11:08:12;;;;;;;62.53;33.08;;;14.90;44.30;14.00;102696.00;;;;5064498;28;20044;-65
2022/01/26 11:10:59;;;;;;;64.63;34.67;;;14.90;44.30;14.00;102711.00;;;;5051513;28;20045;-65
2022/01/26 11:13:45;;;;;;;64.38;35.42;;;14.90;44.30;14.00;102714.00;;;;5052430;28;20044;-65
2022/01/26 11:16:33;;;;;;;69.68;35.55;;;14.90;44.20;14.00;102722.00;;;;5061415;28;20029;-66
2022/01/26 11:19:20;;;;;;;67.07;36.38;;;14.90;44.20;14.00;102708.00;;;;5048861;28;20036;-65
2022/01/26 11:22:08;;;;;;;67.35;37.28;;;14.90;44.10;14.00;102712.00;;;;5050109;28;20052;-65
2022/01/26 11:24:54;;;;;;;67.78;34.15;;;14.90;44.20;14.00;102714.00;;;;5040509;28;20417;-66
2022/01/26 11:27:41;;;;;;;68.55;36.20;;;14.90;44.30;14.00;102707.00;;;;5060082;28;20033;-65
2022/01/26 11:30:31;;;;;;;67.10;36.83;;;14.90;44.20;14.00;102694.00;;;;5052171;28;20473;-65
2022/01/26 11:33:21;;;;;;;64.32;34.13;;;15.00;44.30;14.00;102704.00;;;;5049473;28;20051;-65
2022/01/26 11:36:07;;;;;;;62.40;35.17;;;14.90;44.30;14.00;102702.00;;;;5061763;28;20037;-65
2022/01/26 11:48:08;;;;;;;64.35;34.17;;;14.90;44.20;14.00;102676.00;;;;5048456;28;20054;-71
2022/01/26 11:51:02;;;;;;;64.18;34.45;;;14.90;44.20;13.90;102661.00;;;;5049039;28;20036;-71
2022/01/26 11:53:48;;;;;;;60.20;32.67;;;14.90;44.30;14.00;102666.00;;;;5050062;28;20045;-71
2022/01/26 11:56:34;;;;;;;66.53;34.20;;;14.90;44.30;14.00;102661.00;;;;5054044;28;20401;-71
2022/01/26 11:59:23;;;;;;;64.95;31.80;;;14.90;44.30;13.90;102660.00;;;;5062686;28;20043;-71
2022/01/26 12:05:28;;;;;;;64.77;33.53;;;14.90;44.30;13.90;102669.00;;;;5053017;28;20489;-72
2022/01/26 12:08:14;;;;;;;63.15;33.95;;;14.90;44.40;13.90;102659.00;;;;5055710;28;20105;-71
2022/01/26 12:11:01;;;;;;;62.25;33.55;;;14.80;44.40;13.90;102666.00;;;;5047936;28;20045;-71
2022/01/26 12:13:51;;;;;;;58.65;31.17;;;14.80;44.60;13.90;102675.00;;;;5046150;28;20044;-71
2022/01/26 12:16:44;;;;;;;57.85;31.17;;;14.80;44.70;13.90;102664.00;;;;5059739;28;20033;-71
2022/01/26 12:19:36;;;;;;;59.47;32.03;;;14.80;44.70;13.90;102670.00;;;;5055476;28;20040;-71
2022/01/26 12:32:14;;;;;;;56.67;30.70;;;14.90;44.90;13.90;102659.00;;;;5053926;28;20465;-71
2022/01/26 12:38:39;;;;;;;57.83;30.58;;;14.90;45.00;13.90;102650.00;;;;5061844;28;20493;-71
2022/01/26 12:44:13;;;;;;;55.45;28.83;;;14.90;45.00;13.90;102624.00;;;;5062748;28;20040;-71
2022/01/26 12:46:59;;;;;;;54.90;29.52;;;14.90;45.00;13.90;102621.00;;;;5059909;28;20119;-71
2022/01/26 12:49:45;;;;;;;56.60;30.42;;;14.90;45.00;14.00;102634.00;;;;5062409;28;20047;-71
2022/01/26 12:52:31;;;;;;;59.60;30.25;;;14.90;45.00;14.00;102634.00;;;;5049806;28;20048;-71
2022/01/26 12:55:28;;;;;;;55.83;29.40;;;14.90;44.90;14.00;102632.00;;;;5049679;28;20036;-71
2022/01/26 12:58:30;;;;;;;51.75;27.90;;;14.90;44.90;14.00;102633.00;;;;5058251;28;20044;-71
2022/01/26 13:01:18;;;;;;;53.83;29.02;;;14.90;44.90;14.00;102618.00;;;;5050737;28;20395;-71
2022/01/26 13:04:07;;;;;;;55.60;28.60;;;14.90;44.80;14.00;102612.00;;;;5063298;28;20422;-71
2022/01/26 13:06:53;;;;;;;59.58;29.40;;;14.90;44.90;14.00;102615.00;;;;5050480;28;20421;-72
2022/01/26 13:09:41;;;;;;;59.17;30.52;;;14.90;44.80;14.00;102611.00;;;;5047979;28;20048;-71
2022/01/26 13:12:32;;;;;;;53.00;28.70;;;14.90;44.70;14.00;102615.00;;;;5050344;28;20094;-71
2022/01/26 13:15:25;;;;;;;56.70;29.58;;;14.90;44.80;14.00;102616.00;;;;5061891;28;20086;-71
2022/01/26 13:18:31;;;;;;;47.58;25.38;;;14.90;44.70;14.00;102616.00;;;;5060372;28;20123;-71
2022/01/26 13:24:52;;;;;;;52.40;27.08;;;14.90;44.70;14.00;102598.00;;;;5049646;28;20040;-71
2022/01/26 13:28:16;;;;;;;51.67;26.00;;;14.90;44.60;13.90;102597.00;;;;5061370;28;20120;-71
2022/01/26 13:37:13;;;;;;;54.63;28.30;;;14.90;44.70;13.90;102573.00;;;;5056604;28;20040;-71
2022/01/26 13:43:40;;;;;;;50.67;26.33;;;14.90;44.70;13.90;102573.00;;;;5065876;28;20090;-71
2022/01/26 13:55:31;;;;;;;48.17;25.98;;;14.80;45.00;13.90;102583.00;;;;5065540;28;20487;-71
2022/01/26 13:58:28;;;;;;;48.00;25.50;;;14.80;45.10;13.90;102584.00;;;;5055721;28;20048;-71
2022/01/26 14:01:20;;;;;;;49.95;25.67;;;14.80;45.10;13.90;102576.00;;;;5063404;28;20379;-71
2022/01/26 14:04:06;;;;;;;50.17;26.85;;;14.90;45.20;13.90;102566.00;;;;5048296;28;20032;-71
2022/01/26 14:06:52;;;;;;;52.13;26.48;;;14.80;45.10;13.90;102570.00;;;;5066243;28;20439;-72
2022/01/26 14:09:38;;;;;;;48.30;26.40;;;14.90;45.10;13.90;102576.00;;;;5059299;28;20441;-71
2022/01/26 14:12:29;;;;;;;46.08;25.23;;;14.80;45.20;13.90;102569.00;;;;5052632;28;20044;-71
2022/01/26 14:15:27;;;;;;;51.55;27.63;;;14.90;45.10;14.00;102573.00;;;;5069660;28;20197;-71
2022/01/26 14:24:26;;;;;;;47.88;26.10;;;14.90;45.10;14.00;102559.00;;;;5071136;28;20079;-71
2022/01/26 14:27:12;;;;;;;47.00;25.27;;;14.90;45.10;14.00;102557.00;;;;5064809;28;20493;-71
2022/01/26 14:51:32;;;;;;;41.60;22.75;;;14.90;45.20;14.00;102555.00;;;;5059649;28;20032;-71
2022/01/26 14:54:25;;;;;;;40.95;22.42;;;14.90;45.30;14.00;102565.00;;;;5064239;28;20041;-72
2022/01/26 15:00:07;;;;;;;40.42;22.10;;;14.90;45.30;14.00;102562.00;;;;5035626;28;20402;-71
2022/01/26 15:33:50;;;;;;;38.92;21.65;;;14.90;45.40;14.00;102550.00;;;;5053610;28;20043;-72
2022/01/26 15:42:45;;;;;;;37.15;20.67;;;14.90;45.40;14.00;102530.00;;;;5062643;28;20047;-70
2022/01/26 15:57:56;;;;;;;38.92;21.60;;;14.90;45.40;13.90;102511.00;;;;5063912;28;20405;-71
2022/01/26 16:37:45;;;;;;;35.67;19.55;;;14.90;45.90;14.00;102513.00;;;;5053796;28;20036;-71
2022/01/26 18:07:13;;;;;;;32.78;18.80;;;14.90;46.30;13.90;102428.00;;;;5060522;28;20246;-73
2022/01/26 18:13:12;;;;;;;32.50;18.13;;;14.90;46.30;13.90;102434.00;;;;5043899;28;20047;-72
2022/01/26 18:17:03;;;;;;;34.85;19.55;;;14.90;46.40;13.90;102433.00;;;;5040677;28;20037;-70
2022/01/26 18:49:22;;;;;;;37.47;20.95;;;14.90;46.50;13.90;102416.00;;;;5065764;28;20047;-69